Time;durP1;ratioP1;P1;durP2;ratioP2;P2;SDS_P1;SDS_P2;PMS_P1;PMS_P2;Temp;Humidity;BMP_temperature;BMP_pressure;BME280_temperature;BME280_humidity;BME280_pressure;Samples;Min_cycle;Max_cycle;Signal;HPM_P1;HPM_P2
2022/10/16 00:00:26;;;;;;;10.13;4.60;;;;;;;11.90;100.00;100976.13;5260818;28;20111;-80
2022/10/16 00:02:57;;;;;;;6.78;4.47;;;;;;;11.87;100.00;100983.56;5261843;28;20053;-80
2022/10/16 00:05:28;;;;;;;7.32;4.63;;;;;;;11.90;100.00;100980.56;5264532;28;20133;-80
2022/10/16 00:08:00;;;;;;;6.55;4.10;;;;;;;11.89;100.00;100974.41;5260518;28;20501;-80
2022/10/16 00:10:31;;;;;;;5.72;4.43;;;;;;;11.90;100.00;100972.56;5261362;28;20026;-79
2022/10/16 00:13:04;;;;;;;7.13;4.70;;;;;;;11.87;100.00;100975.53;5263471;28;20033;-79
2022/10/16 00:15:36;;;;;;;7.40;4.40;;;;;;;11.86;100.00;100977.34;5261250;28;20116;-79
2022/10/16 00:18:07;;;;;;;7.15;4.20;;;;;;;11.86;100.00;100981.88;5257936;28;20064;-79
2022/10/16 00:20:39;;;;;;;8.43;4.80;;;;;;;11.82;100.00;100980.50;5264900;28;20056;-79
2022/10/16 00:23:10;;;;;;;6.25;4.53;;;;;;;11.79;100.00;100978.94;5262130;28;20030;-79
2022/10/16 00:25:41;;;;;;;7.65;4.10;;;;;;;11.80;100.00;100977.09;5266622;28;20068;-79
2022/10/16 00:28:13;;;;;;;8.50;4.30;;;;;;;11.82;100.00;100983.16;5263228;28;34591;-79
2022/10/16 00:30:44;;;;;;;5.57;4.15;;;;;;;11.81;100.00;100984.97;5255846;28;20060;-79
2022/10/16 00:33:15;;;;;;;9.02;4.35;;;;;;;11.81;100.00;100976.94;5263664;28;20037;-79
2022/10/16 00:35:48;;;;;;;8.23;4.35;;;;;;;11.78;100.00;100981.75;5254190;28;20029;-79
2022/10/16 00:38:19;;;;;;;6.03;3.80;;;;;;;11.78;100.00;100974.59;5264021;28;20076;-79
2022/10/16 00:40:50;;;;;;;5.75;3.92;;;;;;;11.78;100.00;100981.75;5256372;28;20112;-79
2022/10/16 00:43:50;;;;;;;6.10;3.78;;;;;;;11.78;100.00;100987.97;5259420;28;20046;-79
2022/10/16 00:46:26;;;;;;;5.03;3.78;;;;;;;11.73;100.00;100985.72;5254063;28;20478;-79
2022/10/16 00:49:04;;;;;;;7.43;3.67;;;;;;;11.73;100.00;100979.53;5256446;28;20029;-79
2022/10/16 00:51:43;;;;;;;6.82;4.05;;;;;;;11.66;100.00;100983.78;5252979;28;20018;-79
2022/10/16 00:54:17;;;;;;;6.80;3.40;;;;;;;11.67;100.00;100988.97;5260669;28;20022;-79
2022/10/16 00:56:50;;;;;;;5.07;3.28;;;;;;;11.61;100.00;100980.72;5263360;28;20025;-79
2022/10/16 00:59:33;;;;;;;7.28;4.18;;;;;;;11.59;100.00;100990.66;5263935;28;20076;-80
2022/10/16 01:02:07;;;;;;;7.30;4.50;;;;;;;11.60;100.00;100985.19;5260217;28;20053;-79
2022/10/16 01:04:42;;;;;;;6.40;3.55;;;;;;;11.56;100.00;100978.47;5262469;28;20347;-79
2022/10/16 01:07:25;;;;;;;7.90;3.35;;;;;;;11.54;100.00;100978.59;5254160;28;20034;-79
2022/10/16 01:10:34;;;;;;;4.45;3.35;;;;;;;11.52;100.00;100980.59;5256767;28;20042;-79
2022/10/16 01:13:20;;;;;;;6.40;3.42;;;;;;;11.50;100.00;100977.22;5261489;28;20020;-79
2022/10/16 01:15:59;;;;;;;5.28;3.58;;;;;;;11.45;100.00;100984.81;5258319;28;20109;-79
2022/10/16 01:18:39;;;;;;;5.25;3.35;;;;;;;11.45;100.00;100982.16;5259551;28;20045;-79
2022/10/16 01:21:29;;;;;;;5.35;4.28;;;;;;;11.48;100.00;100978.34;5265667;28;20551;-80
2022/10/16 01:24:15;;;;;;;4.13;3.17;;;;;;;11.46;100.00;100996.34;5262382;28;20387;-79
2022/10/16 01:27:20;;;;;;;5.72;3.33;;;;;;;11.45;100.00;100992.84;5264433;28;20061;-80
2022/10/16 01:29:56;;;;;;;5.18;3.40;;;;;;;11.40;100.00;101000.44;5256676;28;20116;-79
2022/10/16 01:32:36;;;;;;;7.88;3.88;;;;;;;11.35;100.00;100987.50;5264114;28;20475;-79
2022/10/16 01:35:26;;;;;;;5.88;3.67;;;;;;;11.40;100.00;100994.25;5267425;28;20048;-79
2022/10/16 01:38:11;;;;;;;7.18;3.70;;;;;;;11.50;100.00;100981.69;5265177;28;20021;-79
2022/10/16 01:40:47;;;;;;;5.13;3.88;;;;;;;11.51;100.00;100986.06;5272997;28;20021;-79
2022/10/16 01:43:27;;;;;;;4.68;3.53;;;;;;;11.57;100.00;101001.53;5256929;28;20041;-79
2022/10/16 01:46:00;;;;;;;4.88;4.07;;;;;;;11.66;100.00;100989.13;5264651;28;20130;-79
2022/10/16 01:48:33;;;;;;;6.38;3.03;;;;;;;11.63;100.00;100978.72;5269453;28;20035;-79
2022/10/16 01:51:14;;;;;;;7.22;3.22;;;;;;;11.67;100.00;100978.28;5265095;28;20025;-79
2022/10/16 01:53:50;;;;;;;5.53;3.25;;;;;;;11.66;100.00;100976.59;5268884;28;20026;-79
2022/10/16 01:56:23;;;;;;;3.38;2.80;;;;;;;11.65;100.00;100980.25;5258804;28;20025;-79
2022/10/16 01:59:01;;;;;;;6.40;3.05;;;;;;;11.65;100.00;100974.06;5262553;28;20072;-80
2022/10/16 02:01:36;;;;;;;6.97;3.03;;;;;;;11.71;100.00;100982.34;5264835;28;20080;-79
2022/10/16 02:04:31;;;;;;;5.78;2.83;;;;;;;11.76;100.00;100987.25;5263600;28;20026;-79
2022/10/16 02:07:03;;;;;;;3.45;2.53;;;;;;;11.77;100.00;100991.59;5257975;28;20030;-80
2022/10/16 02:09:35;;;;;;;8.55;3.08;;;;;;;11.81;100.00;100995.66;5268074;28;20032;-80
2022/10/16 02:12:26;;;;;;;3.90;2.50;;;;;;;11.81;100.00;101002.84;5266017;28;20809;-80
2022/10/16 02:14:57;;;;;;;6.18;2.30;;;;;;;11.75;100.00;100982.91;5262904;28;20058;-80
2022/10/16 02:17:29;;;;;;;6.28;2.55;;;;;;;11.72;100.00;100994.72;5261588;28;20086;-80
2022/10/16 02:20:01;;;;;;;5.63;2.70;;;;;;;11.75;100.00;100995.44;5259226;28;20049;-80
2022/10/16 02:22:43;;;;;;;5.32;2.55;;;;;;;11.72;100.00;100989.38;5264474;28;20065;-80
2022/10/16 02:25:29;;;;;;;4.85;2.40;;;;;;;11.75;100.00;100980.22;5259677;28;20026;-80
2022/10/16 02:28:12;;;;;;;3.10;2.45;;;;;;;11.71;100.00;100984.16;5261765;28;20078;-80
2022/10/16 02:30:50;;;;;;;5.30;2.30;;;;;;;11.66;100.00;100995.31;5262049;28;20022;-80
2022/10/16 02:33:24;;;;;;;4.88;2.50;;;;;;;11.61;100.00;100988.72;5261734;28;20497;-80
2022/10/16 02:35:57;;;;;;;6.03;2.60;;;;;;;11.57;100.00;100984.63;5259828;28;20156;-80
2022/10/16 02:38:30;;;;;;;3.88;2.67;;;;;;;11.49;100.00;100980.88;5258774;28;20029;-80
2022/10/16 02:41:03;;;;;;;3.78;2.45;;;;;;;11.54;100.00;100997.31;5268673;28;20500;-80
2022/10/16 02:43:34;;;;;;;4.93;2.67;;;;;;;11.52;100.00;100998.44;5256900;28;20025;-80
2022/10/16 02:46:05;;;;;;;5.53;2.60;;;;;;;11.49;100.00;100998.72;5269338;28;20028;-80
2022/10/16 02:48:37;;;;;;;5.63;2.42;;;;;;;11.41;100.00;100990.59;5256336;28;20033;-80
2022/10/16 02:51:08;;;;;;;3.92;2.38;;;;;;;11.43;100.00;100991.28;5265505;28;20025;-80
2022/10/16 02:53:39;;;;;;;5.32;2.38;;;;;;;11.39;100.00;100987.22;5266260;28;20075;-80
2022/10/16 02:56:11;;;;;;;4.93;2.45;;;;;;;11.37;100.00;100991.88;5260969;28;20045;-80
2022/10/16 02:58:42;;;;;;;4.50;2.83;;;;;;;11.39;100.00;100987.22;5261651;28;20048;-80
2022/10/16 03:01:16;;;;;;;3.95;2.28;;;;;;;11.34;100.00;100990.31;5260690;28;20030;-80
2022/10/16 03:03:47;;;;;;;3.35;2.33;;;;;;;11.27;100.00;100983.88;5264728;28;20029;-80
2022/10/16 03:06:19;;;;;;;3.92;2.33;;;;;;;11.25;100.00;100992.00;5257347;28;20041;-80
2022/10/16 03:08:50;;;;;;;3.13;2.30;;;;;;;11.25;100.00;100996.53;5260360;28;20083;-80
2022/10/16 03:11:21;;;;;;;3.85;2.58;;;;;;;11.25;100.00;100993.84;5296278;28;20025;-80
2022/10/16 03:13:52;;;;;;;5.07;2.47;;;;;;;11.30;100.00;100997.78;5257435;28;20832;-80
2022/10/16 03:16:24;;;;;;;3.55;2.13;;;;;;;11.29;100.00;100992.56;5258096;28;20466;-80
2022/10/16 03:18:55;;;;;;;4.97;2.10;;;;;;;11.35;100.00;101002.69;5261432;28;20034;-80
2022/10/16 03:21:26;;;;;;;4.25;2.30;;;;;;;11.40;100.00;101012.97;5257947;28;20033;-80
2022/10/16 03:23:58;;;;;;;3.00;2.05;;;;;;;11.38;100.00;101015.78;5263224;28;20100;-80
2022/10/16 03:26:29;;;;;;;4.00;2.10;;;;;;;11.35;100.00;101008.03;5259935;28;20524;-79
2022/10/16 03:29:02;;;;;;;5.07;2.00;;;;;;;11.37;100.00;101015.91;5261547;28;20025;-80
2022/10/16 03:31:33;;;;;;;3.13;2.17;;;;;;;11.44;100.00;101022.34;5261774;28;20378;-80
2022/10/16 03:34:05;;;;;;;3.67;1.80;;;;;;;11.43;100.00;101032.22;5260497;28;20037;-80
2022/10/16 03:36:36;;;;;;;3.35;1.90;;;;;;;11.40;100.00;101024.47;5263221;28;20025;-80
2022/10/16 03:39:08;;;;;;;3.08;2.10;;;;;;;11.49;100.00;101020.09;5263540;28;20037;-80
2022/10/16 03:41:39;;;;;;;5.55;2.13;;;;;;;11.48;100.00;101024.59;5260290;28;20108;-80
2022/10/16 03:44:10;;;;;;;2.00;1.60;;;;;;;11.43;100.00;101026.00;5261694;28;20406;-80
2022/10/16 03:46:41;;;;;;;5.13;2.00;;;;;;;11.45;100.00;101038.25;5294798;28;20538;-80
2022/10/16 03:49:13;;;;;;;2.90;1.85;;;;;;;11.47;100.00;101036.25;5261508;28;20030;-80
2022/10/16 03:51:44;;;;;;;4.40;1.65;;;;;;;11.47;100.00;101036.25;5265871;28;20032;-80
2022/10/16 03:54:15;;;;;;;2.58;1.70;;;;;;;11.45;100.00;101029.41;5259346;28;20060;-80
2022/10/16 03:56:47;;;;;;;2.22;1.77;;;;;;;11.48;100.00;101043.31;5262970;28;20034;-80
2022/10/16 03:59:18;;;;;;;3.45;1.88;;;;;;;11.46;100.00;101039.91;5259650;28;20454;-80
2022/10/16 04:01:49;;;;;;;2.50;1.95;;;;;;;11.47;100.00;101038.94;5255212;28;20413;-80
2022/10/16 04:04:20;;;;;;;3.50;2.08;;;;;;;11.47;100.00;101046.13;5259378;28;20385;-80
2022/10/16 04:06:52;;;;;;;2.10;1.90;;;;;;;11.51;100.00;101040.31;5265261;28;20447;-80
2022/10/16 04:09:23;;;;;;;3.97;1.90;;;;;;;11.52;100.00;101038.53;5258573;28;20381;-80
2022/10/16 04:11:54;;;;;;;3.28;2.00;;;;;;;11.51;100.00;101043.00;5257364;28;20025;-79
2022/10/16 04:14:25;;;;;;;3.80;2.55;;;;;;;11.51;100.00;101032.31;5257272;28;20033;-80
2022/10/16 04:16:57;;;;;;;3.88;2.28;;;;;;;11.56;100.00;101042.56;5266108;28;20497;-80
2022/10/16 04:19:28;;;;;;;5.05;2.30;;;;;;;11.59;100.00;101052.13;5262929;28;20452;-80
2022/10/16 04:21:59;;;;;;;2.38;2.15;;;;;;;11.56;100.00;101049.75;5262499;28;20595;-80
2022/10/16 04:24:30;;;;;;;8.90;2.33;;;;;;;11.59;100.00;101055.66;5265154;28;20496;-80
2022/10/16 04:27:02;;;;;;;3.50;2.30;;;;;;;11.64;100.00;101047.19;5263891;28;21584;-80
2022/10/16 04:29:33;;;;;;;4.97;3.33;;;;;;;11.68;100.00;101045.94;5264940;28;20112;-80
2022/10/16 04:32:05;;;;;;;3.95;2.78;;;;;;;11.69;100.00;101042.25;5259907;28;20133;-80
2022/10/16 04:34:38;;;;;;;3.95;2.78;;;;;;;11.67;100.00;101049.56;5248336;28;20394;-80
2022/10/16 04:37:09;;;;;;;5.10;2.63;;;;;;;11.68;100.00;101051.28;5268301;28;20371;-80
2022/10/16 04:39:40;;;;;;;3.35;2.50;;;;;;;11.72;100.00;101060.69;5255255;28;20026;-80
2022/10/16 04:42:11;;;;;;;4.40;2.60;;;;;;;11.67;100.00;101053.09;5257285;28;20033;-80
2022/10/16 04:44:43;;;;;;;3.85;2.63;;;;;;;11.69;100.00;101071.66;5258957;28;20030;-80
2022/10/16 04:47:14;;;;;;;5.60;2.85;;;;;;;11.67;100.00;101073.63;5259369;28;20027;-80
2022/10/16 04:49:45;;;;;;;6.10;2.85;;;;;;;11.66;100.00;101080.81;5270497;28;20420;-80
2022/10/16 04:52:21;;;;;;;3.78;2.88;;;;;;;11.61;100.00;101072.38;5264830;28;20389;-80
2022/10/16 04:54:53;;;;;;;5.07;2.60;;;;;;;11.61;100.00;101074.22;5263722;28;20037;-80
2022/10/16 04:57:25;;;;;;;4.07;2.70;;;;;;;11.59;100.00;101082.38;5261118;28;20322;-80
2022/10/16 04:59:56;;;;;;;4.32;2.78;;;;;;;11.60;100.00;101088.53;5267946;28;20492;-80
2022/10/16 05:02:27;;;;;;;4.72;2.60;;;;;;;11.60;100.00;101094.72;5258290;28;20084;-80
2022/10/16 05:04:59;;;;;;;3.90;2.75;;;;;;;11.54;100.00;101087.28;5257840;28;20017;-80
2022/10/16 05:08:03;;;;;;;;;;;;;;;;;;;;;
2022/10/16 05:10:35;;;;;;;12.27;3.33;;;;;;;11.35;100.00;101082.81;5260066;28;39737;-80
2022/10/16 05:13:09;;;;;;;4.45;2.50;;;;;;;11.48;100.00;101115.44;5261135;28;20030;-80
2022/10/16 05:15:48;;;;;;;3.78;2.85;;;;;;;11.33;100.00;101085.63;5262983;28;20040;-80
2022/10/16 05:18:19;;;;;;;4.63;2.72;;;;;;;11.40;100.00;101083.22;5264417;28;20044;-80
2022/10/16 05:20:50;;;;;;;2.95;2.58;;;;;;;11.41;100.00;101094.75;5267600;28;20032;-80
2022/10/16 05:23:25;;;;;;;4.68;2.80;;;;;;;11.44;100.00;101097.16;5261403;28;20037;-80
2022/10/16 05:26:08;;;;;;;4.18;2.80;;;;;;;11.34;100.00;101098.00;5260885;28;20416;-80
2022/10/16 05:28:40;;;;;;;6.72;3.30;;;;;;;11.43;100.00;101120.34;5265460;28;20048;-80
2022/10/16 05:31:14;;;;;;;4.30;2.90;;;;;;;11.36;100.00;101105.88;5253825;28;20378;-80
2022/10/16 05:33:49;;;;;;;9.48;2.80;;;;;;;11.24;100.00;101097.16;5263134;28;20071;-80
2022/10/16 05:36:27;;;;;;;6.90;3.05;;;;;;;11.29;100.00;101104.72;5263081;28;20453;-80
2022/10/16 05:38:58;;;;;;;7.20;2.78;;;;;;;11.41;100.00;101122.28;5265665;28;20032;-80
2022/10/16 05:41:29;;;;;;;4.47;2.80;;;;;;;11.31;100.00;101110.78;5260353;28;20026;-80
2022/10/16 05:44:04;;;;;;;6.45;3.00;;;;;;;11.33;100.00;101120.34;5274159;28;20031;-80
2022/10/16 05:46:35;;;;;;;5.00;2.58;;;;;;;11.37;100.00;101144.09;5264732;28;20056;-80
2022/10/16 05:49:06;;;;;;;4.55;2.58;;;;;;;11.25;100.00;101144.22;5272927;28;20025;-80
2022/10/16 05:51:38;;;;;;;4.38;2.67;;;;;;;11.31;100.00;101158.88;5262098;28;20025;-79
2022/10/16 05:54:09;;;;;;;9.65;3.03;;;;;;;11.29;100.00;101164.34;5262360;28;20017;-80
2022/10/16 05:56:40;;;;;;;8.10;3.60;;;;;;;11.35;100.00;101166.44;5270409;28;20028;-80
2022/10/16 05:59:12;;;;;;;5.85;2.97;;;;;;;11.39;100.00;101168.84;5273066;28;20052;-79
2022/10/16 06:01:43;;;;;;;8.45;3.28;;;;;;;11.34;100.00;101158.56;5266823;28;20052;-79
2022/10/16 06:04:14;;;;;;;5.82;2.88;;;;;;;11.41;100.00;101169.53;5261951;28;20068;-79
2022/10/16 06:06:46;;;;;;;4.97;2.83;;;;;;;11.34;100.00;101179.94;5263578;28;20112;-79
2022/10/16 06:09:17;;;;;;;6.32;3.45;;;;;;;11.40;100.00;101179.38;5258982;28;20146;-79
2022/10/16 06:11:48;;;;;;;10.77;4.07;;;;;;;11.40;100.00;101181.22;5275079;28;20422;-79
2022/10/16 06:14:19;;;;;;;5.35;3.00;;;;;;;11.39;100.00;101188.38;5255704;28;20026;-79
2022/10/16 06:16:51;;;;;;;5.78;3.08;;;;;;;11.30;100.00;101202.56;5255187;28;20032;-79
2022/10/16 06:19:22;;;;;;;5.03;3.05;;;;;;;11.29;100.00;101207.06;5258993;28;20493;-79
2022/10/16 06:21:54;;;;;;;8.20;3.92;;;;;;;11.35;100.00;101216.34;5259866;28;20513;-79
2022/10/16 06:24:25;;;;;;;6.25;2.85;;;;;;;11.35;100.00;101216.34;5258895;28;20569;-80
2022/10/16 06:26:57;;;;;;;10.18;3.35;;;;;;;11.41;100.00;101223.78;5259210;28;20017;-79
2022/10/16 06:29:28;;;;;;;8.75;3.67;;;;;;;11.37;100.00;101222.38;5258813;28;20033;-79
2022/10/16 06:31:59;;;;;;;6.53;3.35;;;;;;;11.35;100.00;101232.38;5257303;28;20033;-79
2022/10/16 06:34:31;;;;;;;4.80;2.72;;;;;;;11.38;100.00;101229.44;5258453;28;20029;-79
2022/10/16 06:37:02;;;;;;;10.43;3.30;;;;;;;11.40;100.00;101232.81;5258975;28;20013;-79
2022/10/16 06:39:33;;;;;;;9.68;3.03;;;;;;;11.44;100.00;101238.72;5261270;28;20021;-79
2022/10/16 06:42:22;;;;;;;5.70;3.40;;;;;;;11.47;100.00;101241.09;5258792;28;20073;-79
2022/10/16 06:44:56;;;;;;;6.22;2.78;;;;;;;11.46;100.00;101237.56;5289697;28;20033;-79
2022/10/16 06:47:28;;;;;;;7.10;3.35;;;;;;;11.53;100.00;101260.09;5257360;28;20124;-79
2022/10/16 06:49:59;;;;;;;6.97;3.25;;;;;;;11.39;100.00;101230.25;5258140;28;20577;-79
2022/10/16 06:52:31;;;;;;;7.25;3.20;;;;;;;11.55;100.00;101246.59;5258792;28;20378;-80
2022/10/16 06:55:02;;;;;;;9.90;4.47;;;;;;;11.69;100.00;101270.25;5259801;28;20450;-80
2022/10/16 06:57:34;;;;;;;6.75;3.00;;;;;;;11.76;100.00;101262.50;5258757;28;20040;-80
2022/10/16 07:00:06;;;;;;;7.47;3.40;;;;;;;11.82;100.00;101269.13;5258106;28;20025;-79
2022/10/16 07:02:37;;;;;;;6.43;2.75;;;;;;;11.93;100.00;101274.34;5260132;28;20431;-80
2022/10/16 07:05:08;;;;;;;4.63;3.13;;;;;;;12.39;100.00;101274.59;5258117;28;20036;-80
2022/10/16 07:07:40;;;;;;;4.85;3.05;;;;;;;13.12;100.00;101271.25;5261543;28;20029;-79
2022/10/16 07:10:11;;;;;;;6.50;2.97;;;;;;;13.91;100.00;101275.16;5260260;28;20014;-80
2022/10/16 07:12:44;;;;;;;3.63;2.05;;;;;;;14.49;100.00;101285.31;5258940;28;20025;-80
2022/10/16 07:15:16;;;;;;;4.47;2.20;;;;;;;15.17;100.00;101289.09;5255937;28;20029;-80
2022/10/16 07:17:47;;;;;;;2.40;1.63;;;;;;;15.48;100.00;101281.31;5261452;28;20164;-81
2022/10/16 07:20:19;;;;;;;3.17;1.40;;;;;;;15.97;100.00;101296.72;5254402;28;20014;-80
2022/10/16 07:22:50;;;;;;;3.35;1.38;;;;;;;16.19;100.00;101287.13;5247175;28;20123;-81
2022/10/16 07:25:22;;;;;;;6.95;1.58;;;;;;;16.61;100.00;101291.47;5274071;28;20022;-81
2022/10/16 07:27:56;;;;;;;2.63;1.50;;;;;;;16.78;100.00;101291.44;5245792;28;20326;-81
2022/10/16 07:30:28;;;;;;;4.90;1.60;;;;;;;16.89;100.00;101276.78;5260961;28;20032;-81
2022/10/16 07:32:59;;;;;;;5.28;1.67;;;;;;;17.43;100.00;101297.63;5262455;28;20025;-81
2022/10/16 07:35:31;;;;;;;3.42;1.30;;;;;;;17.50;100.00;101291.34;5261503;28;20080;-81
2022/10/16 07:38:02;;;;;;;3.53;1.70;;;;;;;17.68;100.00;101288.34;5268362;28;20104;-79
2022/10/16 07:40:33;;;;;;;3.03;1.58;;;;;;;18.33;100.00;101319.44;5265858;28;20025;-79
2022/10/16 07:43:05;;;;;;;5.35;1.70;;;;;;;18.31;100.00;101286.38;5262183;28;20040;-79
2022/10/16 07:45:37;;;;;;;5.57;1.45;;;;;;;18.60;100.00;101327.13;5268274;28;20033;-80
2022/10/16 07:48:08;;;;;;;3.97;1.35;;;;;;;18.89;100.00;101326.38;5258603;28;20033;-80
2022/10/16 07:50:41;;;;;;;4.43;1.35;;;;;;;18.91;100.00;101318.09;5258173;28;20040;-80
2022/10/16 07:53:13;;;;;;;4.07;1.23;;;;;;;19.55;100.00;101339.94;5258301;28;20025;-80
2022/10/16 07:55:44;;;;;;;3.63;1.20;;;;;;;20.25;100.00;101328.63;5255941;28;20498;-81
2022/10/16 07:58:16;;;;;;;3.42;1.30;;;;;;;20.64;100.00;101355.25;5256973;28;20060;-81
2022/10/16 08:00:47;;;;;;;3.22;1.45;;;;;;;19.75;100.00;101333.97;5256195;28;20044;-81
2022/10/16 08:03:18;;;;;;;2.17;1.33;;;;;;;19.89;100.00;101333.06;5261943;28;20050;-82
2022/10/16 08:06:22;;;;;;;3.13;1.50;;;;;;;19.67;100.00;101332.19;5260872;28;20037;-81
2022/10/16 08:08:55;;;;;;;3.20;1.25;;;;;;;19.99;100.00;101327.34;5261245;28;20505;-81
2022/10/16 08:12:15;;;;;;;4.93;1.52;;;;;;;20.10;100.00;101345.78;5261659;28;20021;-81
2022/10/16 08:15:40;;;;;;;3.60;1.63;;;;;;;20.46;100.00;101344.00;5264994;28;20390;-81
2022/10/16 08:18:45;;;;;;;4.25;1.42;;;;;;;20.76;100.00;101369.09;5262779;28;20025;-81
2022/10/16 08:21:19;;;;;;;3.03;1.27;;;;;;;20.59;100.00;101354.97;5265077;28;20061;-81
2022/10/16 08:24:24;;;;;;;5.07;1.27;;;;;;;20.80;100.00;101377.69;5265425;28;20033;-81
2022/10/16 08:27:40;;;;;;;3.45;1.40;;;;;;;20.76;100.00;101380.78;5265019;28;20390;-81
2022/10/16 08:30:12;;;;;;;3.05;1.30;;;;;;;20.92;100.00;101357.13;5281258;28;20040;-81
2022/10/16 08:33:05;;;;;;;;;;;;;;;;;;;;;
2022/10/16 08:35:37;;;;;;;5.10;1.60;;;;;;;20.69;100.00;101389.91;5243505;28;39778;-81
2022/10/16 08:38:08;;;;;;;3.42;1.50;;;;;;;21.44;100.00;101387.44;5244504;28;20105;-81
2022/10/16 08:40:42;;;;;;;3.10;1.20;;;;;;;21.47;100.00;101392.50;5244687;28;20049;-81
2022/10/16 08:43:49;;;;;;;4.85;1.40;;;;;;;21.96;100.00;101399.59;5243639;28;20084;-81
2022/10/16 08:47:11;;;;;;;4.18;1.20;;;;;;;23.36;100.00;101388.75;5276396;28;20041;-81
2022/10/16 08:50:11;;;;;;;2.88;1.35;;;;;;;22.54;100.00;101390.94;5241133;28;20085;-81
2022/10/16 08:52:47;;;;;;;3.65;1.20;;;;;;;23.52;100.00;101413.84;5241210;28;20506;-81
2022/10/16 08:55:41;;;;;;;3.17;1.20;;;;;;;23.62;100.00;101416.97;5261236;28;20056;-81
2022/10/16 08:58:18;;;;;;;5.35;1.13;;;;;;;23.97;100.00;101401.09;5264539;28;20025;-81
2022/10/16 09:00:53;;;;;;;2.63;1.20;;;;;;;24.23;100.00;101409.31;5264055;28;20083;-81
2022/10/16 09:04:03;;;;;;;3.17;1.13;;;;;;;25.54;100.00;101413.00;5242770;28;20046;-81
2022/10/16 09:06:38;;;;;;;4.28;1.40;;;;;;;24.73;100.00;101418.41;5258218;28;20076;-81
2022/10/16 09:10:06;;;;;;;6.22;1.85;;;;;;;25.38;100.00;101421.81;5258695;28;20026;-80
2022/10/16 09:12:51;;;;;;;4.05;1.20;;;;;;;24.85;100.00;101429.44;5240700;28;20030;-80
2022/10/16 09:15:36;;;;;;;6.40;1.42;;;;;;;24.52;100.00;101437.88;5238929;28;21403;-80
2022/10/16 09:18:28;;;;;;;5.75;1.48;;;;;;;24.01;100.00;101433.38;5242421;28;20038;-81
2022/10/16 09:21:38;;;;;;;5.80;1.55;;;;;;;24.08;100.00;101437.72;5258134;28;20462;-80
2022/10/16 09:24:14;;;;;;;4.32;1.15;;;;;;;23.53;100.00;101412.81;5253134;28;20072;-80
2022/10/16 09:27:43;;;;;;;;;;;;;;;;;;;;;
2022/10/16 09:30:20;;;;;;;6.78;1.45;;;;;;;24.71;100.00;101423.28;5251715;28;39980;-81
2022/10/16 09:33:17;;;;;;;4.25;1.50;;;;;;;26.04;100.00;101445.63;5264189;28;20025;-80
2022/10/16 09:36:03;;;;;;;7.57;1.50;;;;;;;26.20;100.00;101441.41;5263453;28;20033;-81
2022/10/16 09:38:38;;;;;;;6.80;1.42;;;;;;;23.81;100.00;101444.34;5278738;28;20021;-81
2022/10/16 09:41:20;;;;;;;6.28;1.42;;;;;;;23.71;100.00;101439.34;5263574;28;20044;-80
2022/10/16 09:43:56;;;;;;;6.55;1.52;;;;;;;23.89;100.00;101439.47;5263493;28;20033;-81
2022/10/16 09:46:32;;;;;;;5.45;1.52;;;;;;;24.95;100.00;101444.47;5263111;28;20490;-80
2022/10/16 09:49:24;;;;;;;5.97;1.58;;;;;;;24.30;100.00;101438.22;5262106;28;20029;-81
2022/10/16 09:52:11;;;;;;;6.57;1.58;;;;;;;23.68;100.00;101439.75;5263428;28;20032;-81
2022/10/16 09:54:55;;;;;;;6.50;1.75;;;;;;;24.94;100.00;101451.00;5247401;28;20076;-81
2022/10/16 09:57:30;;;;;;;6.25;1.60;;;;;;;24.05;100.00;101453.66;5242719;28;20053;-81
2022/10/16 10:00:09;;;;;;;8.57;2.20;;;;;;;22.93;100.00;101457.25;5251134;28;20021;-81
2022/10/16 10:02:41;;;;;;;5.75;1.42;;;;;;;21.10;100.00;101454.25;5262015;28;20077;-81
2022/10/16 10:05:21;;;;;;;6.10;1.90;;;;;;;21.83;100.00;101462.84;5263428;28;20045;-81
2022/10/16 10:08:05;;;;;;;7.50;1.85;;;;;;;22.68;100.00;101459.75;5263396;28;20030;-81
2022/10/16 10:10:41;;;;;;;5.03;1.75;;;;;;;24.41;100.00;101453.03;5263434;28;20478;-81
2022/10/16 10:13:21;;;;;;;9.15;1.58;;;;;;;24.52;100.00;101457.78;5262839;28;20022;-81
2022/10/16 10:15:53;;;;;;;7.55;1.85;;;;;;;23.08;100.00;101458.97;5262833;28;20041;-81
2022/10/16 10:18:26;;;;;;;9.30;2.25;;;;;;;22.91;100.00;101453.88;5263328;28;20033;-81
2022/10/16 10:21:00;;;;;;;8.30;2.30;;;;;;;22.96;100.00;101464.97;5263060;28;20486;-81
2022/10/16 10:23:31;;;;;;;8.32;2.05;;;;;;;22.84;100.00;101464.78;5263127;28;20490;-81
2022/10/16 10:26:18;;;;;;;7.43;2.17;;;;;;;24.81;100.00;101477.34;5262798;28;20014;-81
2022/10/16 10:29:02;;;;;;;9.23;1.98;;;;;;;26.64;100.00;101471.28;5262629;28;20022;-81
2022/10/16 10:31:58;;;;;;;8.65;2.17;;;;;;;26.00;100.00;101479.13;5263539;28;20474;-81
2022/10/16 10:34:44;;;;;;;5.65;1.55;;;;;;;24.42;100.00;101482.00;5250082;28;20022;-81
2022/10/16 10:37:41;;;;;;;9.45;1.90;;;;;;;23.76;100.00;101488.56;5256859;28;20030;-81
2022/10/16 10:40:50;;;;;;;5.07;1.60;;;;;;;25.85;100.00;101476.75;5256958;28;20029;-81
2022/10/16 10:43:30;;;;;;;7.43;1.73;;;;;;;27.71;100.00;101475.72;5241279;28;20034;-81
2022/10/16 10:46:04;;;;;;;9.13;1.70;;;;;;;28.67;90.53;101482.53;5269787;28;20423;-80
2022/10/16 10:49:03;;;;;;;6.80;1.58;;;;;;;29.77;77.09;101485.59;5262733;28;20033;-80
2022/10/16 10:51:52;;;;;;;9.05;2.20;;;;;;;29.12;82.52;101484.38;5262781;28;20119;-80
2022/10/16 10:54:44;;;;;;;7.47;2.00;;;;;;;30.24;87.06;101494.38;5277620;28;20342;-80
2022/10/16 10:57:25;;;;;;;7.60;1.88;;;;;;;29.42;81.41;101495.00;5262405;28;20378;-81
2022/10/16 11:00:09;;;;;;;10.18;2.20;;;;;;;26.50;100.00;101499.88;5261908;28;20033;-81
2022/10/16 11:02:48;;;;;;;8.27;2.10;;;;;;;25.20;100.00;101488.13;5271110;28;20072;-81
2022/10/16 11:05:38;;;;;;;8.20;1.95;;;;;;;25.87;100.00;101485.53;5282823;28;20032;-80
2022/10/16 11:08:21;;;;;;;14.15;2.53;;;;;;;23.83;100.00;101486.66;5283305;28;20111;-81
2022/10/16 11:11:05;;;;;;;10.95;2.47;;;;;;;23.51;100.00;101489.25;5279624;28;20480;-80
2022/10/16 11:13:57;;;;;;;6.10;1.90;;;;;;;23.24;100.00;101490.34;5262094;28;20017;-80
2022/10/16 11:16:32;;;;;;;10.82;2.22;;;;;;;25.76;100.00;101489.06;5277877;28;20124;-80
2022/10/16 11:19:27;;;;;;;10.85;2.42;;;;;;;25.82;100.00;101496.31;5262100;28;20049;-80
2022/10/16 11:22:11;;;;;;;10.13;1.85;;;;;;;23.42;100.00;101495.94;5262133;28;20100;-80
2022/10/16 11:24:51;;;;;;;8.38;1.80;;;;;;;22.56;100.00;101483.16;5262230;28;20087;-80
2022/10/16 11:27:43;;;;;;;8.23;2.08;;;;;;;23.32;100.00;101490.94;5261575;28;20289;-80
2022/10/16 11:30:16;;;;;;;8.57;2.00;;;;;;;22.24;100.00;101491.81;5261769;28;20402;-80
2022/10/16 11:33:08;;;;;;;10.30;2.28;;;;;;;24.48;100.00;101492.00;5262545;28;20033;-81
2022/10/16 11:35:51;;;;;;;7.70;1.80;;;;;;;26.04;100.00;101492.09;5261766;28;20072;-81
2022/10/16 11:38:40;;;;;;;8.93;2.17;;;;;;;25.23;100.00;101496.72;5262113;28;20026;-81
2022/10/16 11:41:24;;;;;;;7.82;2.28;;;;;;;26.89;100.00;101495.72;5261621;28;20033;-81
2022/10/16 11:44:17;;;;;;;9.88;2.25;;;;;;;27.86;100.00;101501.78;5261533;28;20064;-80
2022/10/16 11:47:08;;;;;;;7.00;2.00;;;;;;;29.66;95.11;101493.94;5261376;28;20030;-80
2022/10/16 11:49:41;;;;;;;10.02;2.05;;;;;;;30.56;68.46;101499.13;5259810;28;20025;-81
2022/10/16 11:52:41;;;;;;;6.35;2.03;;;;;;;32.20;69.35;101497.41;5262428;28;20021;-80
2022/10/16 11:55:18;;;;;;;8.52;2.00;;;;;;;30.57;55.76;101501.59;5261618;28;20021;-80
2022/10/16 11:58:33;;;;;;;8.90;1.85;;;;;;;27.74;75.00;101501.81;5259836;28;20022;-81
2022/10/16 12:01:51;;;;;;;10.65;1.65;;;;;;;28.37;73.04;101497.34;5261757;28;20088;-81
2022/10/16 12:04:34;;;;;;;9.80;1.80;;;;;;;29.44;64.99;101508.47;5251896;28;20045;-84
2022/10/16 12:07:11;;;;;;;5.40;1.67;;;;;;;29.74;64.08;101501.75;5260861;28;20065;-80
2022/10/16 12:09:43;;;;;;;9.60;2.10;;;;;;;29.91;62.04;101493.44;5261177;28;20036;-81
2022/10/16 12:12:37;;;;;;;7.15;1.60;;;;;;;29.34;57.03;101495.41;5261767;28;20021;-80